createdAt,value
2023-03-13T00:00:05.761Z,1001.24
2023-03-13T00:01:05.739Z,1001.23
2023-03-13T00:02:05.762Z,1001.20
2023-03-13T00:03:05.803Z,1001.19
2023-03-13T00:05:06.194Z,1001.15
2023-03-13T00:06:05.868Z,1001.11
2023-03-13T00:07:05.898Z,1001.11
2023-03-13T00:08:05.934Z,1001.08
2023-03-13T00:09:05.962Z,1001.04
2023-03-13T00:10:05.984Z,1001.00
2023-03-13T00:11:06.016Z,1000.96
2023-03-13T00:12:06.038Z,1000.88
2023-03-13T00:13:06.074Z,1000.86
2023-03-13T00:14:06.093Z,1000.88
2023-03-13T00:15:06.142Z,1000.85
2023-03-13T00:16:06.296Z,1000.81
2023-03-13T00:17:06.260Z,1000.77
2023-03-13T00:19:06.357Z,1000.71
2023-03-13T00:20:06.269Z,1000.63
2023-03-13T00:21:06.309Z,1000.67
2023-03-13T00:22:06.320Z,1000.63
2023-03-13T00:23:06.653Z,1000.65
2023-03-13T00:24:06.404Z,1000.60
2023-03-13T00:25:06.404Z,1000.58
2023-03-13T00:26:06.434Z,1000.57
2023-03-13T00:27:06.476Z,1000.56
2023-03-13T00:28:06.484Z,1000.50
2023-03-13T00:29:06.524Z,1000.44
2023-03-13T00:30:06.551Z,1000.41
2023-03-13T00:31:06.723Z,1000.40
2023-03-13T00:32:06.710Z,1000.37
2023-03-13T00:33:06.630Z,1000.39
2023-03-13T00:34:06.685Z,1000.35
2023-03-13T00:35:06.695Z,1000.31
2023-03-13T00:36:06.716Z,1000.34
2023-03-13T00:37:06.742Z,1000.35
2023-03-13T00:38:06.788Z,1000.37
2023-03-13T00:39:06.824Z,1000.31
2023-03-13T00:40:06.840Z,1000.28
2023-03-13T00:42:07.210Z,1000.22
2023-03-13T00:43:06.911Z,1000.21
2023-03-13T00:44:06.974Z,1000.17
2023-03-13T00:45:06.985Z,1000.18
2023-03-13T00:46:07.121Z,1000.14
2023-03-13T00:47:07.081Z,1000.09
2023-03-13T00:48:07.154Z,1000.14
2023-03-13T00:49:07.386Z,1000.09
2023-03-13T00:50:07.113Z,1000.07
2023-03-13T00:51:07.160Z,1000.11
2023-03-13T00:52:07.198Z,1000.10
2023-03-13T00:53:07.200Z,1000.08
2023-03-13T00:54:07.224Z,1000.02
2023-03-13T00:55:07.257Z,1000.05
2023-03-13T00:56:07.296Z,1000.00
2023-03-13T00:57:07.312Z,1000.00
2023-03-13T00:58:07.339Z,999.99
2023-03-13T00:59:07.373Z,999.96
2023-03-13T01:00:07.400Z,999.94
2023-03-13T01:01:07.426Z,999.92
2023-03-13T01:02:07.589Z,999.90
2023-03-13T01:03:07.616Z,999.89
2023-03-13T01:04:07.528Z,999.88
2023-03-13T01:05:07.540Z,999.88
2023-03-13T01:06:07.575Z,999.90
2023-03-13T01:07:07.605Z,999.85
2023-03-13T01:08:07.950Z,999.89
2023-03-13T01:09:07.659Z,999.86
2023-03-13T01:10:07.689Z,999.82
2023-03-13T01:11:07.728Z,999.79
2023-03-13T01:12:07.747Z,999.85
2023-03-13T01:13:07.776Z,999.78
2023-03-13T01:14:07.826Z,999.78
2023-03-13T01:15:07.851Z,999.75
2023-03-13T01:16:07.976Z,999.69
2023-03-13T01:17:07.888Z,999.68
2023-03-13T01:18:07.914Z,999.70
2023-03-13T01:19:07.974Z,999.71
2023-03-13T01:20:08.039Z,999.69
2023-03-13T01:21:08.002Z,999.68
2023-03-13T01:22:08.043Z,999.64
2023-03-13T01:23:08.057Z,999.63
2023-03-13T01:24:08.113Z,999.61
2023-03-13T01:25:08.120Z,999.60
2023-03-13T01:26:08.147Z,999.57
2023-03-13T01:27:08.177Z,999.62
2023-03-13T01:28:08.211Z,999.57
2023-03-13T01:29:08.228Z,999.54
2023-03-13T01:30:08.263Z,999.54
2023-03-13T01:31:08.329Z,999.53
2023-03-13T01:32:08.621Z,999.53
2023-03-13T01:33:08.374Z,999.47
2023-03-13T01:34:08.385Z,999.46
2023-03-13T01:35:08.427Z,999.44
2023-03-13T01:36:08.434Z,999.45
2023-03-13T01:38:08.823Z,999.41
2023-03-13T01:39:08.546Z,999.37
2023-03-13T01:40:08.573Z,999.34
2023-03-13T01:41:08.580Z,999.34
2023-03-13T01:42:08.607Z,999.33
2023-03-13T01:43:12.006Z,999.32
2023-03-13T01:44:08.658Z,999.27
2023-03-13T01:45:08.700Z,999.23
2023-03-13T01:46:08.796Z,999.20
2023-03-13T01:47:08.749Z,999.13
2023-03-13T01:48:08.782Z,999.14
2023-03-13T01:49:08.804Z,999.09
2023-03-13T01:50:08.935Z,999.07
2023-03-13T01:51:08.884Z,999.09
2023-03-13T01:53:08.917Z,998.97
2023-03-13T01:54:08.943Z,998.96
2023-03-13T01:55:08.977Z,998.95
2023-03-13T01:56:09.306Z,998.90
2023-03-13T01:57:09.045Z,998.94
2023-03-13T01:58:09.067Z,998.88
2023-03-13T01:59:09.090Z,998.86
2023-03-13T02:00:09.122Z,998.83
2023-03-13T02:01:09.149Z,998.79
2023-03-13T02:02:09.183Z,998.80
2023-03-13T02:03:09.343Z,998.74
2023-03-13T02:04:09.233Z,998.74
2023-03-13T02:05:09.260Z,998.73
2023-03-13T02:06:09.294Z,998.72
2023-03-13T02:07:09.338Z,998.67
2023-03-13T02:08:09.344Z,998.65
2023-03-13T02:09:09.375Z,998.65
2023-03-13T02:10:09.404Z,998.58
2023-03-13T02:11:09.429Z,998.58
2023-03-13T02:12:09.472Z,998.54
2023-03-13T02:13:09.488Z,998.49
2023-03-13T02:14:09.527Z,998.43
2023-03-13T02:15:09.847Z,998.44
2023-03-13T02:16:09.645Z,998.39
2023-03-13T02:17:09.605Z,998.30
2023-03-13T02:18:09.632Z,998.28
2023-03-13T02:19:09.664Z,998.23
2023-03-13T02:20:09.704Z,998.25
2023-03-13T02:21:09.718Z,998.26
2023-03-13T02:22:09.745Z,998.27
2023-03-13T02:23:09.797Z,998.20
2023-03-13T02:24:09.801Z,998.24
2023-03-13T02:25:09.841Z,998.23
2023-03-13T02:26:09.867Z,998.25
2023-03-13T02:27:09.906Z,998.21
2023-03-13T02:28:09.921Z,998.19
2023-03-13T02:29:09.949Z,998.18
2023-03-13T02:30:10.008Z,998.16
2023-03-13T02:31:10.086Z,998.15
2023-03-13T02:32:10.031Z,998.13
2023-03-13T02:33:10.055Z,998.18
2023-03-13T02:34:10.098Z,998.16
2023-03-13T02:35:10.121Z,998.17
2023-03-13T02:36:10.175Z,998.17
2023-03-13T02:37:10.183Z,998.17
2023-03-13T02:38:10.200Z,998.12
2023-03-13T02:39:10.558Z,998.13
2023-03-13T02:40:10.257Z,998.11
2023-03-13T02:41:10.290Z,998.09
2023-03-13T02:42:10.318Z,998.07
2023-03-13T02:43:10.347Z,998.05
2023-03-13T02:44:10.374Z,998.07
2023-03-13T02:45:10.405Z,998.06
2023-03-13T02:46:10.447Z,998.04
2023-03-13T02:47:10.465Z,998.07
2023-03-13T02:48:10.492Z,998.10
2023-03-13T02:49:10.520Z,998.06
2023-03-13T02:50:10.547Z,998.12
2023-03-13T02:51:10.575Z,998.07
2023-03-13T02:52:10.603Z,998.03
2023-03-13T02:53:10.634Z,998.04
2023-03-13T02:54:10.676Z,998.04
2023-03-13T02:55:10.721Z,998.03
2023-03-13T02:56:10.716Z,997.99
2023-03-13T02:57:10.759Z,997.98
2023-03-13T02:58:11.081Z,997.95
2023-03-13T02:59:10.810Z,997.89
2023-03-13T03:00:10.836Z,997.86
2023-03-13T03:01:10.892Z,997.82
2023-03-13T03:02:10.915Z,997.78
2023-03-13T03:03:10.934Z,997.74
2023-03-13T03:04:11.286Z,997.74
2023-03-13T03:05:10.982Z,997.74
2023-03-13T03:06:11.009Z,997.76
2023-03-13T03:07:11.046Z,997.69
2023-03-13T03:08:11.066Z,997.62
2023-03-13T03:09:11.102Z,997.58
2023-03-13T03:11:11.186Z,997.59
2023-03-13T03:12:11.185Z,997.55
2023-03-13T03:13:11.207Z,997.58
2023-03-13T03:14:11.290Z,997.54
2023-03-13T03:15:11.271Z,997.51
2023-03-13T03:16:11.384Z,997.45
2023-03-13T03:17:11.325Z,997.41
2023-03-13T03:18:11.352Z,997.45
2023-03-13T03:19:11.398Z,997.49
2023-03-13T03:20:11.411Z,997.55
2023-03-13T03:21:11.445Z,997.49
2023-03-13T03:22:11.777Z,997.47
2023-03-13T03:23:11.505Z,997.47
2023-03-13T03:24:11.530Z,997.51
2023-03-13T03:25:11.540Z,997.48
2023-03-13T03:26:11.573Z,997.51
2023-03-13T03:29:11.937Z,997.59
2023-03-13T03:30:11.697Z,997.58
2023-03-13T03:31:11.721Z,997.57
2023-03-13T03:32:11.744Z,997.56
2023-03-13T03:33:11.768Z,997.55
2023-03-13T03:34:11.811Z,997.60
2023-03-13T03:35:11.829Z,997.56
2023-03-13T03:36:11.887Z,997.62
2023-03-13T03:37:11.885Z,997.60
2023-03-13T03:38:11.920Z,997.59
2023-03-13T03:39:11.945Z,997.48
2023-03-13T03:40:11.981Z,997.46
2023-03-13T03:41:11.998Z,997.51
2023-03-13T03:42:12.033Z,997.49
2023-03-13T03:43:12.058Z,997.44
2023-03-13T03:44:12.082Z,997.46
2023-03-13T03:45:12.133Z,997.46
2023-03-13T03:46:12.187Z,997.43
2023-03-13T03:47:12.251Z,997.42
2023-03-13T03:48:12.513Z,997.40
2023-03-13T03:49:12.232Z,997.31
2023-03-13T03:50:12.272Z,997.37
2023-03-13T03:51:12.298Z,997.35
2023-03-13T03:52:12.324Z,997.40
2023-03-13T03:53:12.344Z,997.36
2023-03-13T03:54:12.368Z,997.34
2023-03-13T03:55:12.398Z,997.32
2023-03-13T03:56:12.426Z,997.29
2023-03-13T03:57:12.468Z,997.28
2023-03-13T03:58:12.492Z,997.22
2023-03-13T03:59:12.513Z,997.25
2023-03-13T04:00:12.544Z,997.27
2023-03-13T04:01:12.602Z,997.30
2023-03-13T04:02:12.658Z,997.29
2023-03-13T04:03:12.721Z,997.32
2023-03-13T04:04:13.061Z,997.27
2023-03-13T04:05:12.706Z,997.28
2023-03-13T04:06:13.015Z,997.35
2023-03-13T04:07:12.748Z,997.38
2023-03-13T04:08:12.780Z,997.37
2023-03-13T04:09:12.807Z,997.36
2023-03-13T04:10:12.832Z,997.32
2023-03-13T04:11:12.858Z,997.28
2023-03-13T04:12:12.950Z,997.17
2023-03-13T04:13:12.924Z,997.19
2023-03-13T04:14:12.951Z,997.14
2023-03-13T04:15:12.984Z,997.16
2023-03-13T04:16:13.063Z,997.17
2023-03-13T04:17:13.051Z,997.18
2023-03-13T04:18:13.064Z,997.16
2023-03-13T04:19:13.092Z,997.20
2023-03-13T04:20:13.126Z,997.12
2023-03-13T04:21:13.145Z,997.05
2023-03-13T04:23:13.217Z,997.04
2023-03-13T04:24:13.236Z,997.03
2023-03-13T04:25:13.261Z,997.00
2023-03-13T04:26:13.314Z,996.96
2023-03-13T04:27:13.322Z,996.99
2023-03-13T04:28:13.355Z,997.01
2023-03-13T04:29:13.380Z,997.03
2023-03-13T04:30:13.406Z,997.09
2023-03-13T04:31:13.836Z,997.06
2023-03-13T04:32:13.495Z,997.06
2023-03-13T04:33:13.523Z,997.05
2023-03-13T04:34:13.571Z,997.05
2023-03-13T04:35:13.658Z,997.00
2023-03-13T04:36:13.621Z,996.95
2023-03-13T04:37:13.625Z,996.99
2023-03-13T04:38:13.632Z,997.02
2023-03-13T04:39:13.664Z,997.00
2023-03-13T04:40:13.693Z,997.05
2023-03-13T04:41:13.717Z,996.96
2023-03-13T04:42:13.751Z,997.02
2023-03-13T04:43:13.942Z,996.97
2023-03-13T04:44:13.809Z,996.99
2023-03-13T04:45:13.999Z,996.93
2023-03-13T04:46:13.974Z,996.94
2023-03-13T04:47:13.898Z,997.01
2023-03-13T04:48:13.925Z,996.93
2023-03-13T04:49:13.966Z,996.88
2023-03-13T04:50:13.978Z,996.88
2023-03-13T04:51:14.016Z,996.89
2023-03-13T04:52:14.034Z,996.85
2023-03-13T04:53:14.064Z,996.84
2023-03-13T04:54:14.145Z,996.84
2023-03-13T04:55:14.439Z,996.81
2023-03-13T04:56:14.163Z,996.79
2023-03-13T04:57:14.178Z,996.81
2023-03-13T04:58:14.208Z,996.80
2023-03-13T04:59:14.243Z,996.76
2023-03-13T05:00:14.262Z,996.76
2023-03-13T05:01:14.312Z,996.71
2023-03-13T05:02:14.324Z,996.76
2023-03-13T05:03:14.353Z,996.73
2023-03-13T05:04:14.377Z,996.72
2023-03-13T05:05:14.573Z,996.82
2023-03-13T05:06:14.430Z,996.80
2023-03-13T05:07:14.463Z,996.77
2023-03-13T05:08:14.493Z,996.79
2023-03-13T05:09:14.526Z,996.81
2023-03-13T05:10:14.546Z,996.80
2023-03-13T05:11:14.596Z,996.74
2023-03-13T05:12:14.604Z,996.74
2023-03-13T05:13:14.952Z,996.68
2023-03-13T05:14:14.664Z,996.69
2023-03-13T05:15:14.702Z,996.64
2023-03-13T05:16:14.840Z,996.70
2023-03-13T05:17:14.749Z,996.76
2023-03-13T05:18:14.816Z,996.73
2023-03-13T05:19:14.821Z,996.67
2023-03-13T05:20:14.847Z,996.55
2023-03-13T05:21:14.887Z,996.45
2023-03-13T05:22:14.895Z,996.43
2023-03-13T05:23:14.924Z,996.39
2023-03-13T05:24:15.256Z,996.45
2023-03-13T05:25:14.975Z,996.49
2023-03-13T05:26:15.009Z,996.46
2023-03-13T05:27:15.039Z,996.46
2023-03-13T05:28:15.065Z,996.49
2023-03-13T05:30:15.136Z,996.49
2023-03-13T05:31:15.189Z,996.47
2023-03-13T05:32:15.182Z,996.49
2023-03-13T05:34:15.235Z,996.44
2023-03-13T05:35:15.275Z,996.37
2023-03-13T05:36:15.294Z,996.31
2023-03-13T05:37:15.339Z,996.36
2023-03-13T05:38:15.664Z,996.34
2023-03-13T05:40:15.412Z,996.35
2023-03-13T05:41:15.436Z,996.31
2023-03-13T05:42:15.460Z,996.30
2023-03-13T05:43:15.492Z,996.22
2023-03-13T05:44:15.516Z,996.20
2023-03-13T05:45:15.552Z,996.13
2023-03-13T05:46:15.705Z,996.10
2023-03-13T05:47:15.611Z,996.17
2023-03-13T05:48:15.660Z,996.20
2023-03-13T05:49:15.666Z,996.19
2023-03-13T05:50:15.687Z,996.16
2023-03-13T05:51:15.724Z,996.23
2023-03-13T05:52:15.744Z,996.28
2023-03-13T05:53:15.799Z,996.31
2023-03-13T05:54:15.819Z,996.30
2023-03-13T05:55:15.839Z,996.38
2023-03-13T05:56:15.858Z,996.47
2023-03-13T05:57:15.887Z,996.50
2023-03-13T05:58:15.914Z,996.55
2023-03-13T05:59:15.963Z,996.58
2023-03-13T06:00:15.977Z,996.58
2023-03-13T06:01:16.003Z,996.52
2023-03-13T06:02:16.330Z,996.46
2023-03-13T06:03:16.078Z,996.43
2023-03-13T06:04:16.225Z,996.37
2023-03-13T06:05:16.155Z,996.42
2023-03-13T06:06:16.161Z,996.45
2023-03-13T06:07:16.189Z,996.47
2023-03-13T06:08:16.206Z,996.54
2023-03-13T06:09:16.249Z,996.61
2023-03-13T06:10:16.268Z,996.55
2023-03-13T06:11:16.300Z,996.62
2023-03-13T06:12:16.330Z,996.56
2023-03-13T06:13:20.103Z,996.59
2023-03-13T06:14:16.390Z,996.61
2023-03-13T06:15:16.414Z,996.57
2023-03-13T06:16:16.466Z,996.64
2023-03-13T06:17:16.468Z,996.65
2023-03-13T06:18:16.496Z,996.66
2023-03-13T06:19:16.520Z,996.73
2023-03-13T06:20:16.549Z,996.75
2023-03-13T06:22:16.911Z,996.72
2023-03-13T06:23:16.624Z,996.77
2023-03-13T06:24:16.659Z,996.73
2023-03-13T06:25:16.708Z,996.71
2023-03-13T06:26:16.715Z,996.70
2023-03-13T06:27:16.739Z,996.71
2023-03-13T06:28:17.079Z,996.74
2023-03-13T06:29:16.800Z,996.79
2023-03-13T06:30:16.839Z,996.68
2023-03-13T06:31:16.910Z,996.72
2023-03-13T06:32:16.995Z,996.67
2023-03-13T06:33:17.004Z,996.56
2023-03-13T06:34:16.948Z,996.63
2023-03-13T06:35:16.991Z,996.63
2023-03-13T06:36:17.058Z,996.55
2023-03-13T06:37:17.034Z,996.59
2023-03-13T06:38:17.062Z,996.59
2023-03-13T06:39:17.086Z,996.65
2023-03-13T06:40:17.116Z,996.64
2023-03-13T06:41:17.189Z,996.59
2023-03-13T06:42:17.175Z,996.67
2023-03-13T06:43:17.197Z,996.64
2023-03-13T06:44:17.235Z,996.71
2023-03-13T06:45:17.256Z,996.73
2023-03-13T06:46:17.661Z,996.76
2023-03-13T06:47:17.394Z,996.67
2023-03-13T06:48:17.354Z,996.70
2023-03-13T06:49:17.380Z,996.70
2023-03-13T06:50:17.409Z,996.70
2023-03-13T06:51:17.429Z,996.76
2023-03-13T06:52:18.828Z,996.83
2023-03-13T06:53:17.488Z,996.73
2023-03-13T06:54:19.531Z,996.81
2023-03-13T06:55:18.682Z,996.77
2023-03-13T06:56:18.962Z,996.77
2023-03-13T06:57:19.104Z,996.79
2023-03-13T06:58:31.701Z,996.77
2023-03-13T06:59:17.978Z,996.80
2023-03-13T07:00:17.694Z,996.73
2023-03-13T07:01:17.839Z,996.75
2023-03-13T07:02:17.751Z,996.80
2023-03-13T07:03:17.770Z,996.76
2023-03-13T07:04:17.908Z,996.79
2023-03-13T07:05:17.835Z,996.82
2023-03-13T07:06:17.876Z,996.76
2023-03-13T07:07:30.979Z,996.74
2023-03-13T07:08:17.921Z,996.74
2023-03-13T07:09:17.953Z,996.65
2023-03-13T07:10:17.985Z,996.74
2023-03-13T07:11:18.010Z,996.77
2023-03-13T07:12:18.066Z,996.76
2023-03-13T07:13:18.094Z,996.80
2023-03-13T07:14:18.187Z,996.77
2023-03-13T07:15:18.125Z,996.72
2023-03-13T07:16:18.298Z,996.79
2023-03-13T07:17:18.237Z,996.77
2023-03-13T07:18:18.216Z,996.87
2023-03-13T07:19:18.247Z,996.84
2023-03-13T07:20:18.342Z,996.73
2023-03-13T07:21:18.304Z,996.79
2023-03-13T07:22:18.335Z,996.75
2023-03-13T07:23:18.369Z,996.74
2023-03-13T07:24:18.480Z,996.84
2023-03-13T07:25:18.416Z,996.75
2023-03-13T07:26:18.469Z,996.75
2023-03-13T07:27:18.561Z,996.85
2023-03-13T07:28:18.506Z,996.77
2023-03-13T07:29:18.549Z,996.73
2023-03-13T07:30:18.875Z,996.78
2023-03-13T07:31:18.632Z,996.75
2023-03-13T07:32:18.695Z,996.77
2023-03-13T07:33:18.706Z,996.70
2023-03-13T07:34:18.676Z,996.69
2023-03-13T07:35:18.705Z,996.63
2023-03-13T07:36:18.815Z,996.63
2023-03-13T07:37:18.765Z,996.60
2023-03-13T07:38:18.791Z,996.56
2023-03-13T07:39:18.816Z,996.61
2023-03-13T07:40:18.846Z,996.57
2023-03-13T07:41:18.870Z,996.56
2023-03-13T07:42:18.910Z,996.48
2023-03-13T07:43:18.961Z,996.55
2023-03-13T07:45:19.012Z,996.48
2023-03-13T07:46:19.080Z,996.48
2023-03-13T07:47:19.062Z,996.49
2023-03-13T07:48:19.118Z,996.52
2023-03-13T07:49:19.404Z,996.53
2023-03-13T07:50:19.167Z,996.51
2023-03-13T07:51:23.285Z,996.48
2023-03-13T07:52:19.185Z,996.50
2023-03-13T07:53:19.287Z,996.47
2023-03-13T07:54:19.258Z,996.45
2023-03-13T07:55:19.593Z,996.46
2023-03-13T07:56:19.320Z,996.44
2023-03-13T07:57:19.367Z,996.36
2023-03-13T07:58:19.368Z,996.43
2023-03-13T07:59:19.419Z,996.43
2023-03-13T08:00:19.422Z,996.38
2023-03-13T08:01:19.498Z,996.34
2023-03-13T08:02:19.498Z,996.42
2023-03-13T08:03:19.627Z,996.38
2023-03-13T08:04:19.553Z,996.35
2023-03-13T08:05:19.563Z,996.40
2023-03-13T08:06:19.593Z,996.43
2023-03-13T08:07:19.625Z,996.35
2023-03-13T08:08:19.650Z,996.37
2023-03-13T08:09:19.717Z,996.35
2023-03-13T08:10:19.712Z,996.29
2023-03-13T08:11:19.762Z,996.33
2023-03-13T08:12:19.769Z,996.28
2023-03-13T08:14:20.147Z,996.20
2023-03-13T08:15:19.855Z,996.18
2023-03-13T08:16:20.040Z,996.26
2023-03-13T08:17:19.925Z,996.23
2023-03-13T08:18:19.958Z,996.17
2023-03-13T08:19:19.963Z,996.24
2023-03-13T08:20:19.998Z,996.26
2023-03-13T08:21:20.031Z,996.31
2023-03-13T08:22:20.066Z,996.28
2023-03-13T08:23:20.075Z,996.30
2023-03-13T08:24:20.116Z,996.25
2023-03-13T08:25:20.141Z,996.25
2023-03-13T08:26:20.188Z,996.26
2023-03-13T08:27:20.490Z,996.28
2023-03-13T08:28:20.221Z,996.20
2023-03-13T08:29:20.477Z,996.28
2023-03-13T08:31:20.504Z,996.31
2023-03-13T08:32:20.387Z,996.26
2023-03-13T08:33:20.562Z,996.33
2023-03-13T08:34:20.429Z,996.39
2023-03-13T08:35:20.509Z,996.33
2023-03-13T08:36:20.484Z,996.23
2023-03-13T08:37:20.505Z,996.34
2023-03-13T08:38:20.508Z,996.32
2023-03-13T08:39:20.551Z,996.33
2023-03-13T08:40:20.586Z,996.25
2023-03-13T08:41:20.596Z,996.28
2023-03-13T08:42:20.642Z,996.33
2023-03-13T08:43:20.674Z,996.36
2023-03-13T08:44:20.697Z,996.34
2023-03-13T08:45:20.783Z,996.34
2023-03-13T08:46:21.335Z,996.32
2023-03-13T08:47:20.919Z,996.36
2023-03-13T08:48:20.802Z,996.40
2023-03-13T08:49:20.852Z,996.41
2023-03-13T08:50:20.863Z,996.39
2023-03-13T08:51:20.903Z,996.30
2023-03-13T08:52:20.915Z,996.32
2023-03-13T08:53:21.008Z,996.32
2023-03-13T08:54:20.999Z,996.28
2023-03-13T08:55:21.006Z,996.31
2023-03-13T08:56:21.032Z,996.26
2023-03-13T08:58:21.109Z,996.31
2023-03-13T08:59:21.115Z,996.33
2023-03-13T09:00:21.202Z,996.27
2023-03-13T09:01:21.181Z,996.29
2023-03-13T09:02:21.280Z,996.27
2023-03-13T09:03:21.278Z,996.25
2023-03-13T09:04:21.282Z,996.19
2023-03-13T09:05:21.310Z,996.16
2023-03-13T09:06:21.340Z,996.19
2023-03-13T09:07:21.374Z,996.14
2023-03-13T09:08:21.389Z,996.14
2023-03-13T09:09:23.274Z,996.14
2023-03-13T09:10:21.744Z,996.19
2023-03-13T09:11:21.478Z,996.10
2023-03-13T09:12:30.474Z,996.07
2023-03-13T09:13:21.526Z,996.00
2023-03-13T09:14:21.565Z,996.02
2023-03-13T09:15:21.598Z,996.01
2023-03-13T09:16:21.680Z,996.12
2023-03-13T09:17:21.657Z,996.08
2023-03-13T09:18:21.740Z,996.09
2023-03-13T09:19:21.704Z,996.16
2023-03-13T09:20:21.755Z,996.10
2023-03-13T09:21:21.874Z,996.06
2023-03-13T09:22:21.801Z,996.07
2023-03-13T09:23:22.116Z,995.99
2023-03-13T09:24:21.844Z,996.02
2023-03-13T09:25:21.871Z,995.98
2023-03-13T09:26:23.315Z,996.03
2023-03-13T09:27:21.928Z,995.94
2023-03-13T09:28:21.964Z,995.93
2023-03-13T09:29:21.985Z,996.01
2023-03-13T09:30:22.055Z,995.93
2023-03-13T09:31:22.076Z,995.88
2023-03-13T09:32:22.160Z,995.84
2023-03-13T09:33:22.100Z,995.83
2023-03-13T09:34:22.159Z,995.85
2023-03-13T09:35:22.158Z,995.78
2023-03-13T09:36:23.109Z,995.83
2023-03-13T09:37:22.271Z,995.93
2023-03-13T09:38:22.252Z,995.85
2023-03-13T09:39:22.290Z,995.87
2023-03-13T09:40:22.349Z,995.88
2023-03-13T09:41:22.635Z,995.86
2023-03-13T09:42:22.372Z,995.88
2023-03-13T09:43:22.401Z,995.93
2023-03-13T09:44:22.436Z,995.87
2023-03-13T09:45:22.461Z,995.80
2023-03-13T09:46:22.539Z,995.90
2023-03-13T09:47:22.511Z,995.83
2023-03-13T09:48:22.546Z,995.82
2023-03-13T09:49:22.576Z,995.80
2023-03-13T09:50:22.662Z,995.84
2023-03-13T09:51:22.639Z,995.85
2023-03-13T09:52:22.660Z,995.74
2023-03-13T09:53:22.704Z,995.82
2023-03-13T09:55:22.749Z,995.88
2023-03-13T09:56:22.783Z,995.87
2023-03-13T09:57:22.797Z,995.80
2023-03-13T09:58:22.827Z,995.77
2023-03-13T09:59:22.864Z,995.81
2023-03-13T10:00:23.022Z,995.73
2023-03-13T10:01:23.081Z,995.67
2023-03-13T10:02:22.965Z,995.66
2023-03-13T10:03:22.986Z,995.71
2023-03-13T10:04:23.080Z,995.73
2023-03-13T10:05:23.119Z,995.68
2023-03-13T10:06:23.362Z,995.71
2023-03-13T10:07:23.097Z,995.59
2023-03-13T10:08:23.137Z,995.77
2023-03-13T10:09:23.181Z,995.73
2023-03-13T10:10:23.183Z,995.76
2023-03-13T10:11:23.211Z,995.61
2023-03-13T10:12:23.276Z,995.51
2023-03-13T10:13:23.284Z,995.58
2023-03-13T10:14:23.330Z,995.49
2023-03-13T10:15:23.333Z,995.50
2023-03-13T10:16:23.440Z,995.42
2023-03-13T10:17:23.401Z,995.36
2023-03-13T10:18:23.417Z,995.31
2023-03-13T10:19:23.459Z,995.19
2023-03-13T10:20:23.499Z,995.16
2023-03-13T10:21:23.504Z,995.38
2023-03-13T10:22:23.542Z,995.32
2023-03-13T10:23:23.575Z,995.32
2023-03-13T10:24:23.598Z,995.20
2023-03-13T10:25:23.645Z,995.22
2023-03-13T10:26:23.654Z,995.23
2023-03-13T10:27:23.682Z,995.39
2023-03-13T10:28:23.717Z,995.27
2023-03-13T10:29:23.771Z,995.34
2023-03-13T10:30:24.084Z,995.31
2023-03-13T10:31:23.851Z,995.33
2023-03-13T10:32:23.885Z,995.31
2023-03-13T10:33:23.866Z,995.18
2023-03-13T10:34:23.896Z,995.24
2023-03-13T10:35:23.938Z,995.20
2023-03-13T10:36:23.957Z,995.20
2023-03-13T10:37:24.290Z,995.13
2023-03-13T10:38:25.662Z,995.23
2023-03-13T10:39:24.039Z,995.17
2023-03-13T10:40:24.086Z,995.07
2023-03-13T10:41:24.123Z,995.07
2023-03-13T10:42:24.269Z,995.08
2023-03-13T10:43:24.162Z,995.18
2023-03-13T10:44:24.186Z,995.22
2023-03-13T10:45:25.453Z,995.15
2023-03-13T10:46:24.317Z,995.29
2023-03-13T10:47:24.280Z,995.23
2023-03-13T10:49:24.354Z,995.01
2023-03-13T10:50:24.366Z,995.21
2023-03-13T10:51:24.411Z,995.14
2023-03-13T10:52:24.430Z,995.05
2023-03-13T10:53:24.470Z,995.13
2023-03-13T10:54:24.494Z,994.95
2023-03-13T10:55:24.525Z,994.87
2023-03-13T10:56:24.544Z,994.92
2023-03-13T10:57:24.856Z,994.76
2023-03-13T10:58:24.618Z,994.72
2023-03-13T10:59:24.629Z,994.81
2023-03-13T11:00:24.691Z,994.72
2023-03-13T11:01:24.698Z,994.64
2023-03-13T11:02:25.082Z,994.53
2023-03-13T11:03:24.884Z,994.77
2023-03-13T11:04:24.844Z,994.69
2023-03-13T11:05:24.835Z,994.72
2023-03-13T11:06:24.843Z,994.70
2023-03-13T11:07:24.879Z,994.82
2023-03-13T11:09:25.246Z,994.80
2023-03-13T11:10:24.978Z,994.75
2023-03-13T11:11:25.000Z,994.81
2023-03-13T11:12:25.029Z,994.76
2023-03-13T11:13:35.962Z,994.68
2023-03-13T11:14:25.082Z,994.80
2023-03-13T11:15:25.197Z,994.78
2023-03-13T11:16:25.200Z,994.68
2023-03-13T11:17:25.217Z,994.64
2023-03-13T11:18:25.212Z,994.70
2023-03-13T11:19:25.280Z,994.67
2023-03-13T11:20:25.270Z,994.65
2023-03-13T11:21:25.291Z,994.60
2023-03-13T11:22:25.718Z,994.48
2023-03-13T11:23:25.373Z,994.64
2023-03-13T11:24:25.391Z,994.53
2023-03-13T11:25:25.419Z,994.49
2023-03-13T11:26:25.445Z,994.52
2023-03-13T11:27:25.536Z,994.57
2023-03-13T11:28:25.503Z,994.36
2023-03-13T11:29:25.607Z,994.46
2023-03-13T11:30:25.586Z,994.55
2023-03-13T11:31:25.641Z,994.49
2023-03-13T11:32:25.686Z,994.15
2023-03-13T11:33:25.654Z,994.40
2023-03-13T11:34:25.681Z,994.32
2023-03-13T11:35:25.709Z,994.29
2023-03-13T11:36:25.825Z,994.37
2023-03-13T11:38:25.806Z,994.23
2023-03-13T11:40:25.883Z,994.23
2023-03-13T11:41:25.919Z,994.31
2023-03-13T11:42:25.952Z,994.16
2023-03-13T11:43:26.173Z,994.19
2023-03-13T11:44:25.994Z,993.98
2023-03-13T11:45:26.171Z,994.11
2023-03-13T11:46:26.198Z,994.13
2023-03-13T11:47:26.377Z,994.04
2023-03-13T11:48:26.107Z,994.06
2023-03-13T11:49:26.130Z,994.01
2023-03-13T11:50:26.163Z,994.14
2023-03-13T11:51:26.259Z,994.19
2023-03-13T11:52:26.226Z,993.91
2023-03-13T11:53:26.262Z,993.86
2023-03-13T11:54:26.288Z,993.80
2023-03-13T11:55:26.314Z,993.71
2023-03-13T11:56:26.342Z,993.72
2023-03-13T11:57:26.383Z,993.74
2023-03-13T11:58:26.400Z,993.76
2023-03-13T11:59:26.434Z,993.68
2023-03-13T12:00:26.471Z,993.63
2023-03-13T12:01:26.528Z,993.84
2023-03-13T12:02:26.603Z,993.67
2023-03-13T12:03:26.611Z,993.79
2023-03-13T12:04:26.579Z,993.79
2023-03-13T12:05:26.722Z,993.85
2023-03-13T12:06:28.550Z,993.80
2023-03-13T12:07:26.667Z,993.80
2023-03-13T12:08:26.719Z,993.68
2023-03-13T12:09:28.260Z,993.68
2023-03-13T12:10:26.772Z,993.85
2023-03-13T12:11:27.093Z,993.75
2023-03-13T12:12:26.826Z,993.71
2023-03-13T12:13:26.845Z,993.85
2023-03-13T12:14:26.880Z,993.84
2023-03-13T12:15:26.928Z,993.79
2023-03-13T12:16:26.986Z,993.93
2023-03-13T12:17:27.022Z,993.89
2023-03-13T12:18:27.014Z,993.80
2023-03-13T12:19:27.048Z,993.84
2023-03-13T12:20:27.064Z,993.79
2023-03-13T12:21:27.160Z,993.71
2023-03-13T12:22:27.136Z,993.68
2023-03-13T12:23:27.182Z,993.65
2023-03-13T12:24:27.185Z,993.78
2023-03-13T12:25:27.289Z,993.62
2023-03-13T12:26:27.246Z,993.50
2023-03-13T12:27:27.279Z,993.52
2023-03-13T12:28:27.341Z,993.40
2023-03-13T12:29:27.365Z,993.59
2023-03-13T12:30:27.794Z,993.53
2023-03-13T12:31:27.423Z,993.44
2023-03-13T12:32:27.494Z,993.41
2023-03-13T12:33:27.475Z,993.40
2023-03-13T12:34:27.483Z,993.51
2023-03-13T12:35:27.514Z,993.37
2023-03-13T12:36:27.620Z,993.26
2023-03-13T12:37:27.579Z,993.28
2023-03-13T12:38:27.608Z,993.47
2023-03-13T12:39:27.637Z,993.28
2023-03-13T12:40:27.676Z,993.33
2023-03-13T12:41:27.703Z,993.14
2023-03-13T12:42:27.746Z,993.30
2023-03-13T12:43:27.756Z,993.18
2023-03-13T12:44:27.787Z,993.23
2023-03-13T12:45:27.832Z,993.11
2023-03-13T12:46:27.924Z,993.14
2023-03-13T12:47:28.130Z,993.26
2023-03-13T12:48:27.970Z,993.15